This is the latest recevied weather packets stored in our database for station/object SM2FXT-13. If no packets are shown the sender has not sent any weather packets the latest 10 day(s).
| Time | Temp. | Humidity | Pressure | Rain* | Wind** | Luminosity | Snow |
|---|---|---|---|---|---|---|---|
| 1778240403 | 17.78° C | 23% | 1023.8 hPa | 0 mm | - | - | - |
| 1778236203 | 15.56° C | 32% | 1024 hPa | 0 mm | - | - | - |
| 1778235603 | 15.56° C | 32% | 1024 hPa | 0 mm | - | - | - |
| 1778233203 | 15° C | 37% | 1023.9 hPa | 0 mm | - | - | - |
| 1778227203 | 15° C | 39% | 1024 hPa | 0 mm | - | - | - |
| 1778217003 | 11.11° C | 59% | 1022.9 hPa | 0 mm | - | - | - |
| 1778215803 | 11.11° C | 63% | 1022.8 hPa | 0 mm | - | - | - |
| 1778210403 | -0.56° C | 100% | 1022.2 hPa | 0 mm | - | - | - |
| 1778208003 | -2.78° C | 100% | 1021.8 hPa | 0 mm | - | - | - |
| 1778200804 | -2.22° C | 100% | 1020.8 hPa | 0 mm | - | - | - |
| 1778198404 | -2.22° C | 100% | 1020.4 hPa | 0 mm | - | - | - |
| 1778188802 | 0.56° C | 100% | 1018.8 hPa | 0 mm | - | - | - |
| 1778169003 | 8.89° C | 71% | 1015.8 hPa | 0 mm | - | - | - |
| 1778167803 | 8.89° C | 73% | 1015.8 hPa | 0 mm | - | - | - |
| 1778162404 | 11.67° C | 61% | 1015.2 hPa | 0 mm | - | - | - |
| 1778148003 | 4.44° C | 91% | 1014.4 hPa | 1.52 mm | - | - | - |
| 1778146203 | 4.44° C | 84% | 1014.5 hPa | 0 mm | - | - | - |
| 1778139004 | 11.11° C | 58% | 1013.7 hPa | 0 mm | - | - | - |
| 1778138403 | 11.67° C | 56% | 1013.6 hPa | 0 mm | - | - | - |
| 1778136003 | 11.11° C | 59% | 1013.4 hPa | 0 mm | - | - | - |
| 1778133003 | 11.11° C | 60% | 1013.2 hPa | 0 mm | - | - | - |
| 1778132404 | 11.67° C | 59% | 1013.2 hPa | 0 mm | - | - | - |
| 1778131204 | 11.11° C | 62% | 1013.2 hPa | 0 mm | - | - | - |
| 1778128204 | 9.44° C | 71% | 1013.1 hPa | 0 mm | - | - | - |
| 1778127603 | 8.33° C | 75% | 1013 hPa | 0 mm | - | - | - |
* Rain latest hour (hover to see other rain measurements)
** Current wind speed in m/s (hover to see current wind gust speed)